sensor_id;sensor_type;location;lat;lon;timestamp;pressure;altitude;pressure_sealevel;temperature;humidity
61113;BME280;47184;57.998;56.184;2022-07-23T00:00:32;99390.34;;;19.33;69.28
61113;BME280;47184;57.998;56.184;2022-07-23T00:02:58;99394.91;;;19.32;69.61
61113;BME280;47184;57.998;56.184;2022-07-23T00:05:25;99389.31;;;19.34;69.42
61113;BME280;47184;57.998;56.184;2022-07-23T00:07:51;99296.44;;;18.75;69.41
61113;BME280;47184;57.998;56.184;2022-07-23T00:10:17;99393.28;;;19.31;69.48
61113;BME280;47184;57.998;56.184;2022-07-23T00:12:43;99374.88;;;19.11;69.38
61113;BME280;47184;57.998;56.184;2022-07-23T00:15:10;99318.06;;;18.74;69.54
61113;BME280;47184;57.998;56.184;2022-07-23T00:17:36;99383.72;;;19.12;69.55
61113;BME280;47184;57.998;56.184;2022-07-23T00:20:03;99351.47;;;18.95;69.84
61113;BME280;47184;57.998;56.184;2022-07-23T00:22:29;99380.56;;;19.03;69.88
61113;BME280;47184;57.998;56.184;2022-07-23T00:24:56;99407.47;;;19.20;69.88
61113;BME280;47184;57.998;56.184;2022-07-23T00:27:23;99353.78;;;18.91;69.77
61113;BME280;47184;57.998;56.184;2022-07-23T00:29:49;99401.31;;;19.19;69.89
61113;BME280;47184;57.998;56.184;2022-07-23T00:32:15;99401.66;;;19.23;70.07
61113;BME280;47184;57.998;56.184;2022-07-23T00:34:41;99414.09;;;19.29;70.02
61113;BME280;47184;57.998;56.184;2022-07-23T00:37:07;99406.53;;;19.26;70.07
61113;BME280;47184;57.998;56.184;2022-07-23T00:39:33;99405.97;;;19.24;69.79
61113;BME280;47184;57.998;56.184;2022-07-23T00:41:59;99340.97;;;18.81;69.94
61113;BME280;47184;57.998;56.184;2022-07-23T00:44:27;99411.78;;;19.33;69.87
61113;BME280;47184;57.998;56.184;2022-07-23T00:46:56;99392.56;;;19.24;70.05
61113;BME280;47184;57.998;56.184;2022-07-23T00:49:25;99409.22;;;19.38;69.90
61113;BME280;47184;57.998;56.184;2022-07-23T00:51:52;99425.03;;;19.51;69.65
61113;BME280;47184;57.998;56.184;2022-07-23T00:54:19;99418.75;;;19.57;69.54
61113;BME280;47184;57.998;56.184;2022-07-23T00:56:46;99418.53;;;19.59;69.34
61113;BME280;47184;57.998;56.184;2022-07-23T00:59:13;99428.22;;;19.60;69.30
61113;BME280;47184;57.998;56.184;2022-07-23T01:01:39;99424.13;;;19.57;69.29
61113;BME280;47184;57.998;56.184;2022-07-23T01:04:06;99425.19;;;19.56;69.39
61113;BME280;47184;57.998;56.184;2022-07-23T01:06:37;99424.13;;;19.57;69.41
61113;BME280;47184;57.998;56.184;2022-07-23T01:09:07;99362.53;;;19.10;69.44
61113;BME280;47184;57.998;56.184;2022-07-23T01:11:35;99432.28;;;19.62;69.27
61113;BME280;47184;57.998;56.184;2022-07-23T01:14:13;99430.56;;;19.68;69.14
61113;BME280;47184;57.998;56.184;2022-07-23T01:16:41;99438.34;;;19.69;69.09
61113;BME280;47184;57.998;56.184;2022-07-23T01:19:09;99443.34;;;19.77;69.13
61113;BME280;47184;57.998;56.184;2022-07-23T01:21:40;99444.75;;;19.80;69.00
61113;BME280;47184;57.998;56.184;2022-07-23T01:24:07;99453.13;;;19.84;68.88
61113;BME280;47184;57.998;56.184;2022-07-23T01:26:37;99369.41;;;19.29;68.96
61113;BME280;47184;57.998;56.184;2022-07-23T01:29:04;99435.56;;;19.76;69.02
61113;BME280;47184;57.998;56.184;2022-07-23T01:31:31;99436.13;;;19.78;68.96
61113;BME280;47184;57.998;56.184;2022-07-23T01:33:57;99452.28;;;19.95;68.79
61113;BME280;47184;57.998;56.184;2022-07-23T01:36:24;99400.03;;;19.69;68.75
61113;BME280;47184;57.998;56.184;2022-07-23T01:38:50;99411.91;;;19.85;68.72
61113;BME280;47184;57.998;56.184;2022-07-23T01:41:17;99366.38;;;19.61;68.63
61113;BME280;47184;57.998;56.184;2022-07-23T01:43:43;99378.72;;;19.74;68.26
61113;BME280;47184;57.998;56.184;2022-07-23T01:46:10;99464.34;;;20.33;68.09
61113;BME280;47184;57.998;56.184;2022-07-23T01:48:41;99476.00;;;20.38;68.27
61113;BME280;47184;57.998;56.184;2022-07-23T01:51:33;99478.78;;;20.43;68.06
61113;BME280;47184;57.998;56.184;2022-07-23T01:54:09;99486.72;;;20.50;67.97
61113;BME280;47184;57.998;56.184;2022-07-23T01:56:35;99479.91;;;20.59;67.82
61113;BME280;47184;57.998;56.184;2022-07-23T01:59:01;99473.03;;;20.63;67.70
61113;BME280;47184;57.998;56.184;2022-07-23T02:01:28;99467.28;;;20.71;67.31
61113;BME280;47184;57.998;56.184;2022-07-23T02:03:54;99460.84;;;20.72;67.20
61113;BME280;47184;57.998;56.184;2022-07-23T02:06:20;99482.13;;;20.91;67.23
61113;BME280;47184;57.998;56.184;2022-07-23T02:08:46;99479.53;;;20.96;66.78
61113;BME280;47184;57.998;56.184;2022-07-23T02:11:12;99463.28;;;21.02;66.82
61113;BME280;47184;57.998;56.184;2022-07-23T02:13:38;99463.59;;;21.06;66.42
61113;BME280;47184;57.998;56.184;2022-07-23T02:16:05;99475.00;;;21.13;66.34
61113;BME280;47184;57.998;56.184;2022-07-23T02:18:31;99464.09;;;21.20;66.34
61113;BME280;47184;57.998;56.184;2022-07-23T02:20:57;99474.09;;;21.24;66.29
61113;BME280;47184;57.998;56.184;2022-07-23T02:23:23;99408.19;;;20.83;66.18
61113;BME280;47184;57.998;56.184;2022-07-23T02:25:49;99401.09;;;20.77;66.16
61113;BME280;47184;57.998;56.184;2022-07-23T02:28:15;99462.78;;;21.22;66.21
61113;BME280;47184;57.998;56.184;2022-07-23T02:30:42;99476.66;;;21.31;66.11
61113;BME280;47184;57.998;56.184;2022-07-23T02:33:09;99478.31;;;21.32;65.93
61113;BME280;47184;57.998;56.184;2022-07-23T02:35:35;99458.81;;;21.25;66.29
61113;BME280;47184;57.998;56.184;2022-07-23T02:38:02;99477.09;;;21.40;66.19
61113;BME280;47184;57.998;56.184;2022-07-23T02:40:30;99479.25;;;21.43;65.98
61113;BME280;47184;57.998;56.184;2022-07-23T02:42:56;99469.25;;;21.38;66.13
61113;BME280;47184;57.998;56.184;2022-07-23T02:45:23;99458.75;;;21.37;66.34
61113;BME280;47184;57.998;56.184;2022-07-23T02:47:53;99474.53;;;21.50;66.42
61113;BME280;47184;57.998;56.184;2022-07-23T02:50:19;99472.19;;;21.54;66.34
61113;BME280;47184;57.998;56.184;2022-07-23T02:52:46;99447.88;;;21.43;66.31
61113;BME280;47184;57.998;56.184;2022-07-23T02:55:12;99476.34;;;21.61;66.28
61113;BME280;47184;57.998;56.184;2022-07-23T02:57:38;99409.06;;;21.22;66.27
61113;BME280;47184;57.998;56.184;2022-07-23T03:00:06;99462.91;;;21.61;65.97
61113;BME280;47184;57.998;56.184;2022-07-23T03:02:32;99454.25;;;21.59;65.97
61113;BME280;47184;57.998;56.184;2022-07-23T03:04:58;99480.38;;;21.81;65.76
61113;BME280;47184;57.998;56.184;2022-07-23T03:07:26;99480.78;;;21.89;65.67
61113;BME280;47184;57.998;56.184;2022-07-23T03:09:53;99480.28;;;21.92;65.22
61113;BME280;47184;57.998;56.184;2022-07-23T03:12:19;99478.47;;;21.98;65.14
61113;BME280;47184;57.998;56.184;2022-07-23T03:14:45;99483.84;;;21.98;64.86
61113;BME280;47184;57.998;56.184;2022-07-23T03:17:11;99484.22;;;22.07;64.82
61113;BME280;47184;57.998;56.184;2022-07-23T03:19:37;99487.31;;;22.15;64.51
61113;BME280;47184;57.998;56.184;2022-07-23T03:22:04;99487.16;;;22.22;64.10
61113;BME280;47184;57.998;56.184;2022-07-23T03:24:31;99487.72;;;22.24;63.68
61113;BME280;47184;57.998;56.184;2022-07-23T03:27:16;99444.97;;;22.06;63.80
61113;BME280;47184;57.998;56.184;2022-07-23T03:29:42;99487.28;;;22.32;63.35
61113;BME280;47184;57.998;56.184;2022-07-23T03:32:08;99429.81;;;21.99;62.89
61113;BME280;47184;57.998;56.184;2022-07-23T03:34:34;99473.81;;;22.32;63.04
61113;BME280;47184;57.998;56.184;2022-07-23T03:37:00;99501.78;;;22.53;62.63
61113;BME280;47184;57.998;56.184;2022-07-23T03:39:27;99419.69;;;22.07;62.21
61113;BME280;47184;57.998;56.184;2022-07-23T03:41:53;99474.19;;;22.41;61.78
61113;BME280;47184;57.998;56.184;2022-07-23T03:44:19;99499.75;;;22.65;61.87
61113;BME280;47184;57.998;56.184;2022-07-23T03:46:45;99485.84;;;22.73;61.42
61113;BME280;47184;57.998;56.184;2022-07-23T03:49:11;99491.56;;;22.77;60.67
61113;BME280;47184;57.998;56.184;2022-07-23T03:51:37;99499.28;;;22.90;60.83
61113;BME280;47184;57.998;56.184;2022-07-23T03:54:03;99501.78;;;23.02;60.05
61113;BME280;47184;57.998;56.184;2022-07-23T03:56:31;99494.38;;;23.14;59.45
61113;BME280;47184;57.998;56.184;2022-07-23T03:58:57;99494.97;;;23.21;58.91
61113;BME280;47184;57.998;56.184;2022-07-23T04:01:23;99496.91;;;23.26;58.36
61113;BME280;47184;57.998;56.184;2022-07-23T04:03:49;99492.84;;;23.23;57.62
61113;BME280;47184;57.998;56.184;2022-07-23T04:06:15;99497.25;;;23.35;57.71
61113;BME280;47184;57.998;56.184;2022-07-23T04:08:42;99498.13;;;23.40;57.44
61113;BME280;47184;57.998;56.184;2022-07-23T04:11:08;99485.19;;;23.42;56.65
61113;BME280;47184;57.998;56.184;2022-07-23T04:13:35;99499.59;;;23.58;56.03
61113;BME280;47184;57.998;56.184;2022-07-23T04:16:03;99510.50;;;23.68;55.96
61113;BME280;47184;57.998;56.184;2022-07-23T04:18:29;99497.06;;;23.79;55.58
61113;BME280;47184;57.998;56.184;2022-07-23T04:21:04;99466.16;;;23.59;54.91
61113;BME280;47184;57.998;56.184;2022-07-23T04:23:30;99495.97;;;23.80;54.61
61113;BME280;47184;57.998;56.184;2022-07-23T04:25:56;99509.56;;;23.95;54.35
61113;BME280;47184;57.998;56.184;2022-07-23T04:28:23;99498.56;;;24.02;53.81
61113;BME280;47184;57.998;56.184;2022-07-23T04:30:49;99501.84;;;24.09;52.96
61113;BME280;47184;57.998;56.184;2022-07-23T04:33:16;99501.88;;;24.19;52.23
61113;BME280;47184;57.998;56.184;2022-07-23T04:35:44;99504.66;;;24.29;51.34
61113;BME280;47184;57.998;56.184;2022-07-23T04:38:18;99486.81;;;24.28;50.17
61113;BME280;47184;57.998;56.184;2022-07-23T04:40:45;99509.06;;;24.45;49.14
61113;BME280;47184;57.998;56.184;2022-07-23T04:43:11;99511.25;;;24.59;48.24
61113;BME280;47184;57.998;56.184;2022-07-23T04:45:44;99513.69;;;24.65;46.24
61113;BME280;47184;57.998;56.184;2022-07-23T04:48:11;99505.34;;;24.67;45.15
61113;BME280;47184;57.998;56.184;2022-07-23T04:50:37;99501.84;;;24.66;44.30
61113;BME280;47184;57.998;56.184;2022-07-23T04:53:04;99501.84;;;24.77;44.21
61113;BME280;47184;57.998;56.184;2022-07-23T04:55:31;99501.91;;;24.87;44.06
61113;BME280;47184;57.998;56.184;2022-07-23T04:57:57;99510.28;;;24.95;43.89
61113;BME280;47184;57.998;56.184;2022-07-23T05:00:23;99501.09;;;25.02;43.59
61113;BME280;47184;57.998;56.184;2022-07-23T05:02:49;99508.72;;;25.25;43.75
61113;BME280;47184;57.998;56.184;2022-07-23T05:05:16;99463.03;;;25.08;43.51
61113;BME280;47184;57.998;56.184;2022-07-23T05:07:44;99434.66;;;25.01;43.77
61113;BME280;47184;57.998;56.184;2022-07-23T05:10:10;99505.47;;;25.59;43.22
61113;BME280;47184;57.998;56.184;2022-07-23T05:12:36;99512.22;;;25.66;43.04
61113;BME280;47184;57.998;56.184;2022-07-23T05:15:02;99508.44;;;25.67;43.01
61113;BME280;47184;57.998;56.184;2022-07-23T05:17:30;99515.50;;;25.68;43.00
61113;BME280;47184;57.998;56.184;2022-07-23T05:19:57;99526.84;;;25.86;42.60
61113;BME280;47184;57.998;56.184;2022-07-23T05:22:23;99519.25;;;25.98;42.28
61113;BME280;47184;57.998;56.184;2022-07-23T05:24:49;99525.97;;;26.11;41.80
61113;BME280;47184;57.998;56.184;2022-07-23T05:27:15;99527.84;;;26.26;41.57
61113;BME280;47184;57.998;56.184;2022-07-23T05:29:41;99521.34;;;26.27;41.39
61113;BME280;47184;57.998;56.184;2022-07-23T05:32:08;99511.88;;;26.29;41.16
61113;BME280;47184;57.998;56.184;2022-07-23T05:34:37;99530.81;;;26.29;40.80
61113;BME280;47184;57.998;56.184;2022-07-23T05:37:05;99462.44;;;25.88;40.55
61113;BME280;47184;57.998;56.184;2022-07-23T05:39:32;99513.22;;;26.16;39.93
61113;BME280;47184;57.998;56.184;2022-07-23T05:41:58;99526.22;;;26.30;40.33
61113;BME280;47184;57.998;56.184;2022-07-23T05:44:24;99525.41;;;26.29;39.96
61113;BME280;47184;57.998;56.184;2022-07-23T05:46:53;99514.53;;;26.45;39.50
61113;BME280;47184;57.998;56.184;2022-07-23T05:49:25;99516.41;;;26.54;39.17
61113;BME280;47184;57.998;56.184;2022-07-23T05:52:10;99446.88;;;26.34;39.41
61113;BME280;47184;57.998;56.184;2022-07-23T05:54:59;99523.00;;;26.87;38.95
61113;BME280;47184;57.998;56.184;2022-07-23T05:57:25;99510.72;;;27.00;38.51
61113;BME280;47184;57.998;56.184;2022-07-23T05:59:52;99519.94;;;27.38;37.94
61113;BME280;47184;57.998;56.184;2022-07-23T06:02:18;99516.56;;;27.86;37.17
61113;BME280;47184;57.998;56.184;2022-07-23T06:04:44;99509.50;;;28.14;36.31
61113;BME280;47184;57.998;56.184;2022-07-23T06:07:21;99515.41;;;28.64;35.72
61113;BME280;47184;57.998;56.184;2022-07-23T06:09:47;99519.81;;;29.03;35.20
61113;BME280;47184;57.998;56.184;2022-07-23T06:12:16;99495.56;;;29.39;33.78
61113;BME280;47184;57.998;56.184;2022-07-23T06:14:42;99517.69;;;29.98;33.09
61113;BME280;47184;57.998;56.184;2022-07-23T06:17:08;99511.56;;;30.47;31.73
61113;BME280;47184;57.998;56.184;2022-07-23T06:19:35;99512.56;;;30.79;31.71
61113;BME280;47184;57.998;56.184;2022-07-23T06:22:01;99507.75;;;31.21;31.33
61113;BME280;47184;57.998;56.184;2022-07-23T06:24:28;99506.81;;;31.70;29.94
61113;BME280;47184;57.998;56.184;2022-07-23T06:26:55;99459.94;;;31.68;29.53
61113;BME280;47184;57.998;56.184;2022-07-23T06:29:21;99504.28;;;32.53;29.22
61113;BME280;47184;57.998;56.184;2022-07-23T06:31:47;99512.53;;;33.40;28.19
61113;BME280;47184;57.998;56.184;2022-07-23T06:34:14;99447.47;;;33.37;27.57
61113;BME280;47184;57.998;56.184;2022-07-23T06:36:40;99499.25;;;34.45;26.27
61113;BME280;47184;57.998;56.184;2022-07-23T06:39:06;99494.75;;;34.70;25.50
61113;BME280;47184;57.998;56.184;2022-07-23T06:41:32;99501.06;;;35.12;25.17
61113;BME280;47184;57.998;56.184;2022-07-23T06:43:59;99505.28;;;35.76;24.63
61113;BME280;47184;57.998;56.184;2022-07-23T06:46:28;99499.25;;;36.56;23.78
61113;BME280;47184;57.998;56.184;2022-07-23T06:48:55;99499.31;;;36.84;23.41
61113;BME280;47184;57.998;56.184;2022-07-23T06:51:21;99506.09;;;37.15;23.03
61113;BME280;47184;57.998;56.184;2022-07-23T06:53:48;99508.41;;;37.13;23.00
61113;BME280;47184;57.998;56.184;2022-07-23T06:56:14;99500.44;;;37.24;23.00
61113;BME280;47184;57.998;56.184;2022-07-23T06:58:40;99503.53;;;37.22;22.56
61113;BME280;47184;57.998;56.184;2022-07-23T07:01:06;99505.63;;;37.69;22.00
61113;BME280;47184;57.998;56.184;2022-07-23T07:03:32;99496.41;;;37.93;21.75
61113;BME280;47184;57.998;56.184;2022-07-23T07:05:58;99501.16;;;38.44;21.77
61113;BME280;47184;57.998;56.184;2022-07-23T07:08:24;99486.53;;;38.78;21.17
61113;BME280;47184;57.998;56.184;2022-07-23T07:10:50;99505.59;;;38.16;20.98
61113;BME280;47184;57.998;56.184;2022-07-23T07:13:17;99474.22;;;37.74;21.46
61113;BME280;47184;57.998;56.184;2022-07-23T07:15:43;99501.09;;;38.59;20.94
61113;BME280;47184;57.998;56.184;2022-07-23T07:18:09;99491.47;;;39.27;20.08
61113;BME280;47184;57.998;56.184;2022-07-23T07:20:35;99458.03;;;39.55;19.78
61113;BME280;47184;57.998;56.184;2022-07-23T07:23:01;99495.88;;;39.51;19.70
61113;BME280;47184;57.998;56.184;2022-07-23T07:25:27;99461.41;;;38.83;19.90
61113;BME280;47184;57.998;56.184;2022-07-23T07:27:54;99507.09;;;39.39;20.07
61113;BME280;47184;57.998;56.184;2022-07-23T07:30:20;99500.97;;;39.49;19.57
61113;BME280;47184;57.998;56.184;2022-07-23T07:32:46;99493.69;;;39.60;19.35
61113;BME280;47184;57.998;56.184;2022-07-23T07:35:12;99490.56;;;39.85;19.55
61113;BME280;47184;57.998;56.184;2022-07-23T07:37:38;99493.84;;;40.44;18.65
61113;BME280;47184;57.998;56.184;2022-07-23T07:40:04;99499.25;;;41.27;17.84
61113;BME280;47184;57.998;56.184;2022-07-23T07:42:31;99503.88;;;41.90;17.59
61113;BME280;47184;57.998;56.184;2022-07-23T07:44:58;99499.38;;;42.23;17.38
61113;BME280;47184;57.998;56.184;2022-07-23T07:47:24;99467.53;;;42.06;17.19
61113;BME280;47184;57.998;56.184;2022-07-23T07:49:50;99502.31;;;42.51;16.96
61113;BME280;47184;57.998;56.184;2022-07-23T07:52:16;99480.78;;;42.27;16.45
61113;BME280;47184;57.998;56.184;2022-07-23T07:54:42;99501.94;;;42.57;16.22
61113;BME280;47184;57.998;56.184;2022-07-23T07:57:09;99493.47;;;43.15;15.82
61113;BME280;47184;57.998;56.184;2022-07-23T07:59:35;99482.47;;;43.80;15.19
61113;BME280;47184;57.998;56.184;2022-07-23T08:02:01;99484.03;;;43.52;14.96
61113;BME280;47184;57.998;56.184;2022-07-23T08:04:27;99487.25;;;43.54;15.36
61113;BME280;47184;57.998;56.184;2022-07-23T08:06:54;99483.25;;;43.84;15.40
61113;BME280;47184;57.998;56.184;2022-07-23T08:09:20;99462.63;;;43.95;15.12
61113;BME280;47184;57.998;56.184;2022-07-23T08:11:46;99490.00;;;44.22;14.97
61113;BME280;47184;57.998;56.184;2022-07-23T08:14:12;99484.81;;;44.20;15.12
61113;BME280;47184;57.998;56.184;2022-07-23T08:16:38;99494.81;;;43.93;14.85
61113;BME280;47184;57.998;56.184;2022-07-23T08:19:04;99488.44;;;43.71;14.98
61113;BME280;47184;57.998;56.184;2022-07-23T08:21:30;99486.03;;;43.76;15.03
61113;BME280;47184;57.998;56.184;2022-07-23T08:23:56;99484.50;;;43.90;15.00
61113;BME280;47184;57.998;56.184;2022-07-23T08:26:22;99495.19;;;44.27;14.99
61113;BME280;47184;57.998;56.184;2022-07-23T08:28:48;99496.34;;;44.30;14.64
61113;BME280;47184;57.998;56.184;2022-07-23T08:31:14;99490.44;;;43.95;14.57
61113;BME280;47184;57.998;56.184;2022-07-23T08:33:42;99490.06;;;43.93;15.12
61113;BME280;47184;57.998;56.184;2022-07-23T08:36:08;99494.69;;;44.54;15.06
61113;BME280;47184;57.998;56.184;2022-07-23T08:38:34;99496.66;;;44.64;14.43
61113;BME280;47184;57.998;56.184;2022-07-23T08:41:01;99497.81;;;44.84;14.13
61113;BME280;47184;57.998;56.184;2022-07-23T08:43:33;99474.25;;;45.00;14.41
61113;BME280;47184;57.998;56.184;2022-07-23T08:46:01;99498.91;;;45.08;13.83
61113;BME280;47184;57.998;56.184;2022-07-23T08:48:33;99490.66;;;44.80;14.08
61113;BME280;47184;57.998;56.184;2022-07-23T08:51:02;99489.75;;;45.01;13.93
61113;BME280;47184;57.998;56.184;2022-07-23T08:53:29;99492.16;;;44.98;14.13
61113;BME280;47184;57.998;56.184;2022-07-23T08:55:58;99498.59;;;44.85;14.28
61113;BME280;47184;57.998;56.184;2022-07-23T08:58:25;99508.28;;;45.36;14.28
61113;BME280;47184;57.998;56.184;2022-07-23T09:00:51;99495.44;;;46.01;13.73
61113;BME280;47184;57.998;56.184;2022-07-23T09:03:23;99495.69;;;46.89;13.14
61113;BME280;47184;57.998;56.184;2022-07-23T09:05:51;99508.13;;;47.46;13.02
61113;BME280;47184;57.998;56.184;2022-07-23T09:08:22;99496.53;;;47.71;12.56
61113;BME280;47184;57.998;56.184;2022-07-23T09:11:00;99505.53;;;46.33;12.90
61113;BME280;47184;57.998;56.184;2022-07-23T09:13:36;99451.06;;;45.20;13.66
61113;BME280;47184;57.998;56.184;2022-07-23T09:16:06;99466.84;;;45.38;13.40
61113;BME280;47184;57.998;56.184;2022-07-23T09:18:36;99498.34;;;45.94;13.73
61113;BME280;47184;57.998;56.184;2022-07-23T09:26:28;99494.97;;;47.16;12.77
61113;BME280;47184;57.998;56.184;2022-07-23T09:29:01;99485.78;;;47.43;12.67
61113;BME280;47184;57.998;56.184;2022-07-23T09:31:32;99454.81;;;47.30;12.30
61113;BME280;47184;57.998;56.184;2022-07-23T09:34:14;99498.59;;;47.13;12.39
61113;BME280;47184;57.998;56.184;2022-07-23T09:36:41;99494.72;;;46.73;12.73
61113;BME280;47184;57.998;56.184;2022-07-23T09:39:07;99504.09;;;46.89;12.77
61113;BME280;47184;57.998;56.184;2022-07-23T09:41:43;99492.50;;;47.49;12.45
61113;BME280;47184;57.998;56.184;2022-07-23T09:44:15;99487.84;;;48.32;12.03
61113;BME280;47184;57.998;56.184;2022-07-23T09:46:44;99492.16;;;48.37;11.74
61113;BME280;47184;57.998;56.184;2022-07-23T09:49:19;99457.66;;;47.77;12.23
61113;BME280;47184;57.998;56.184;2022-07-23T09:51:56;99481.25;;;48.62;11.59
61113;BME280;47184;57.998;56.184;2022-07-23T09:54:30;99489.44;;;48.93;11.90
61113;BME280;47184;57.998;56.184;2022-07-23T09:57:02;99489.69;;;49.35;11.30
61113;BME280;47184;57.998;56.184;2022-07-23T09:59:31;99484.31;;;48.08;11.74
61113;BME280;47184;57.998;56.184;2022-07-23T10:01:59;99488.38;;;47.57;12.07
61113;BME280;47184;57.998;56.184;2022-07-23T10:04:29;99487.63;;;47.26;12.53
61113;BME280;47184;57.998;56.184;2022-07-23T10:07:21;99491.09;;;47.60;12.38
61113;BME280;47184;57.998;56.184;2022-07-23T10:10:07;99488.31;;;47.84;12.47
61113;BME280;47184;57.998;56.184;2022-07-23T10:12:54;99482.88;;;47.50;12.45
61113;BME280;47184;57.998;56.184;2022-07-23T10:15:51;99485.66;;;46.96;12.92
61113;BME280;47184;57.998;56.184;2022-07-23T10:18:17;99485.19;;;47.55;12.57
61113;BME280;47184;57.998;56.184;2022-07-23T10:20:44;99490.94;;;47.71;12.33
61113;BME280;47184;57.998;56.184;2022-07-23T10:23:33;99475.38;;;47.94;12.08
61113;BME280;47184;57.998;56.184;2022-07-23T10:26:12;99474.75;;;47.82;11.90
61113;BME280;47184;57.998;56.184;2022-07-23T10:29:01;99478.13;;;47.74;12.06
61113;BME280;47184;57.998;56.184;2022-07-23T10:34:30;99480.97;;;47.43;12.48
61113;BME280;47184;57.998;56.184;2022-07-23T10:37:12;99476.50;;;47.73;12.42
61113;BME280;47184;57.998;56.184;2022-07-23T10:39:42;99480.59;;;47.68;12.51
61113;BME280;47184;57.998;56.184;2022-07-23T10:42:14;99444.63;;;47.67;12.10
61113;BME280;47184;57.998;56.184;2022-07-23T10:44:45;99462.72;;;48.29;12.04
61113;BME280;47184;57.998;56.184;2022-07-23T10:47:13;99474.66;;;48.73;11.67
61113;BME280;47184;57.998;56.184;2022-07-23T10:50:22;99449.66;;;48.98;11.46
61113;BME280;47184;57.998;56.184;2022-07-23T10:58:02;99479.41;;;50.68;11.09
61113;BME280;47184;57.998;56.184;2022-07-23T11:00:30;99473.53;;;50.04;10.68
61113;BME280;47184;57.998;56.184;2022-07-23T11:02:58;99476.72;;;49.25;11.51
61113;BME280;47184;57.998;56.184;2022-07-23T11:05:42;99440.00;;;47.80;11.71
61113;BME280;47184;57.998;56.184;2022-07-23T11:08:10;99477.13;;;47.06;12.18
61113;BME280;47184;57.998;56.184;2022-07-23T11:10:39;99458.72;;;46.78;12.55
61113;BME280;47184;57.998;56.184;2022-07-23T11:13:45;99452.44;;;45.99;12.85
61113;BME280;47184;57.998;56.184;2022-07-23T11:16:22;99439.88;;;45.24;13.42
61113;BME280;47184;57.998;56.184;2022-07-23T11:32:02;99456.47;;;41.21;16.24
61113;BME280;47184;57.998;56.184;2022-07-23T11:37:04;99462.53;;;42.29;15.83
61113;BME280;47184;57.998;56.184;2022-07-23T11:39:31;99460.56;;;43.24;15.09
61113;BME280;47184;57.998;56.184;2022-07-23T11:41:57;99461.00;;;43.76;14.85
61113;BME280;47184;57.998;56.184;2022-07-23T11:44:32;99460.94;;;44.37;14.69
61113;BME280;47184;57.998;56.184;2022-07-23T11:47:03;99461.50;;;45.06;13.83
61113;BME280;47184;57.998;56.184;2022-07-23T11:49:31;99465.56;;;45.53;13.87
61113;BME280;47184;57.998;56.184;2022-07-23T11:52:09;99459.38;;;46.17;13.60
61113;BME280;47184;57.998;56.184;2022-07-23T11:54:37;99458.56;;;46.58;13.13
61113;BME280;47184;57.998;56.184;2022-07-23T11:57:12;99465.25;;;46.68;12.95
61113;BME280;47184;57.998;56.184;2022-07-23T11:59:38;99462.41;;;47.02;12.74
61113;BME280;47184;57.998;56.184;2022-07-23T12:02:06;99467.66;;;47.24;12.58
61113;BME280;47184;57.998;56.184;2022-07-23T12:04:43;99466.16;;;47.46;12.61
61113;BME280;47184;57.998;56.184;2022-07-23T12:07:35;99456.25;;;47.65;12.27
61113;BME280;47184;57.998;56.184;2022-07-23T12:10:15;99462.53;;;47.73;12.13
61113;BME280;47184;57.998;56.184;2022-07-23T12:12:53;99454.22;;;47.89;12.08
61113;BME280;47184;57.998;56.184;2022-07-23T12:15:39;99454.22;;;48.12;11.63
61113;BME280;47184;57.998;56.184;2022-07-23T12:18:08;99447.97;;;48.25;11.47
61113;BME280;47184;57.998;56.184;2022-07-23T12:20:36;99456.31;;;47.85;11.98
61113;BME280;47184;57.998;56.184;2022-07-23T12:23:05;99459.28;;;47.51;12.06
61113;BME280;47184;57.998;56.184;2022-07-23T12:25:36;99443.44;;;47.68;11.95
61113;BME280;47184;57.998;56.184;2022-07-23T12:28:09;99450.44;;;47.52;12.22
61113;BME280;47184;57.998;56.184;2022-07-23T12:30:52;99446.41;;;47.03;12.42
61113;BME280;47184;57.998;56.184;2022-07-23T12:33:33;99432.97;;;46.94;12.70
61113;BME280;47184;57.998;56.184;2022-07-23T12:36:02;99440.06;;;47.53;12.31
61113;BME280;47184;57.998;56.184;2022-07-23T12:38:39;99437.22;;;47.80;12.29
61113;BME280;47184;57.998;56.184;2022-07-23T12:41:05;99441.16;;;48.06;12.31
61113;BME280;47184;57.998;56.184;2022-07-23T12:43:39;99434.94;;;47.95;12.18
61113;BME280;47184;57.998;56.184;2022-07-23T12:51:27;99427.41;;;46.63;12.57
61113;BME280;47184;57.998;56.184;2022-07-23T12:53:55;99425.22;;;46.44;12.98
61113;BME280;47184;57.998;56.184;2022-07-23T12:56:33;99432.00;;;46.43;12.87
61113;BME280;47184;57.998;56.184;2022-07-23T13:01:34;99424.00;;;46.45;13.04
61113;BME280;47184;57.998;56.184;2022-07-23T13:04:08;99425.25;;;46.40;12.97
61113;BME280;47184;57.998;56.184;2022-07-23T13:09:08;99428.28;;;46.23;13.30
61113;BME280;47184;57.998;56.184;2022-07-23T13:11:34;99438.41;;;46.06;13.40
61113;BME280;47184;57.998;56.184;2022-07-23T13:14:01;99423.53;;;46.16;13.29
61113;BME280;47184;57.998;56.184;2022-07-23T13:16:31;99414.16;;;45.95;13.36
61113;BME280;47184;57.998;56.184;2022-07-23T13:18:58;99418.78;;;45.19;13.80
61113;BME280;47184;57.998;56.184;2022-07-23T13:21:26;99415.16;;;44.49;14.55
61113;BME280;47184;57.998;56.184;2022-07-23T13:23:53;99417.50;;;44.65;14.62
61113;BME280;47184;57.998;56.184;2022-07-23T13:26:20;99416.59;;;44.82;14.14
61113;BME280;47184;57.998;56.184;2022-07-23T13:28:46;99402.31;;;44.80;14.31
61113;BME280;47184;57.998;56.184;2022-07-23T13:31:13;99403.53;;;44.76;14.23
61113;BME280;47184;57.998;56.184;2022-07-23T13:33:39;99415.03;;;44.81;14.24
61113;BME280;47184;57.998;56.184;2022-07-23T13:36:05;99414.91;;;44.99;14.33
61113;BME280;47184;57.998;56.184;2022-07-23T13:38:32;99393.00;;;45.01;14.36